• Join FlightAware (Why Join?)
  • Login
  • US Flag 
01:33PM EDT


 

Airport Tracker/Info


-or-


 

Live Flight TrackerFlight Track Log ✈ DAL3799 ✈ 16-Apr-2013 ✈ KDTW - CYOW

Flight Track Log - Related Links

Times and Time Zones

All times are in EDT time to prevent confusion due to time zone crossing. See the DAL3799 flight status page for this flight to view local times or setup timezone preferences in your user account.

Time Position Orientation Groundspeed Altitude Reporting Facility
EDT Latitude Longitude Course Direction KTS MPH feet Rate Location/Type
10:07PM 42.2017 -83.3583 16° North 158 182 1,100  Level Cleveland Center
10:08PM 42.1181 -83.3572 179° South 224 258 4,100 1,920 Climbing Cleveland Center
10:09PM 42.0883 -83.2972 124° Southeast 275 316 5,900 2,040 Climbing Cleveland Center
10:10PM 42.5653 -83.2271 12° North  Level FlightAware Approximate
10:10PM 42.1078 -83.1833 77° East 315 362 8,100  Level Cleveland Center
10:11PM 42.6900 -83.1897 12° North  Level FlightAware Approximate
10:11PM 42.1714 -83.1272 33° Northeast 331 381 10,200  Level Cleveland Center
10:12PM 42.8139 -83.1478 16° North  Level FlightAware Approximate
10:12PM 42.2575 -83.0997 13° North 325 374 11,700  Level Cleveland Center
10:13PM 42.3511 -83.1061 357° North 313 360 13,300 1,680 Climbing Cleveland Center
10:14PM 42.4469 -83.1100 358° North 329 379 15,100 1,740 Climbing Cleveland Center
10:15PM 42.5447 -83.1194 356° North 335 386 16,800 1,320 Climbing Cleveland Center
10:16PM 42.6469 -83.1236 358° North 347 399 17,800 840 Climbing Cleveland Center
10:17PM 42.7550 -83.1308 357° North 358 412 18,500 780 Climbing Cleveland Center
10:18PM 42.8658 -83.1156 North 379 436 19,400 900 Climbing Cleveland Center
10:19PM 42.9294 -82.9736 58° Northeast 366 421 20,300 900 Climbing Cleveland Center
10:20PM 42.9661 -82.8019 74° East 399 459 21,200 840 Climbing Cleveland Center
10:21PM 43.0006 -82.6300 75° East 434 499 22,000 840 Climbing Cleveland Center
10:22PM 43.0389 -82.4581 73° East 453 521 22,900 840 Climbing Cleveland Center
10:24PM 43.0833 -82.2500 74° East 470 541 23,900 660 Climbing Toronto Center
10:25PM 43.1167 -82.0833 75° East 480 552 24,400 480 Climbing Toronto Center
10:26PM 43.1833 -81.9000 63° Northeast 490 564 24,900 480 Climbing Toronto Center
10:27PM 43.2167 -81.7333 75° East 500 575 25,400 480 Climbing Toronto Center
10:28PM 43.2667 -81.5500 69° East 500 575 25,900 480 Climbing Toronto Center
10:29PM 43.3000 -81.3500 77° East 500 575 26,400 480 Climbing Toronto Center
10:30PM 43.3500 -81.1667 69° East 510 587 26,900 300 Climbing Toronto Center
10:31PM 43.4000 -80.9833 69° East 510 587 27,000  Climbing Toronto Center
10:32PM 43.4500 -80.8000 69° East 520 598 27,000  Level Toronto Center
10:33PM 43.5000 -80.6167 69° East 520 598 27,000  Level Toronto Center
10:34PM 43.5667 -80.4333 63° Northeast 530 610 27,000  Level Toronto Center
10:35PM 43.6167 -80.2333 71° East 530 610 27,000  Level Toronto Center
10:36PM 43.6667 -80.0667 67° East 530 610 27,000  Level Toronto Center
10:37PM 43.7167 -79.8667 71° East 530 610 27,000  Level Toronto Center
10:38PM 43.7833 -79.6833 63° Northeast 530 610 27,000  Level Toronto Center
10:39PM 43.8333 -79.5000 69° East 530 610 27,000  Level Toronto Center
10:40PM 43.8833 -79.3167 69° East 530 610 27,000  Level Toronto Center
10:41PM 43.9333 -79.1000 72° East 530 610 27,000  Level Toronto Center
10:42PM 43.9833 -78.9167 69° East 530 610 27,000  Level Toronto Center
10:43PM 44.0500 -78.7333 63° Northeast 530 610 27,000  Level Toronto Center
10:44PM 44.1000 -78.5333 71° East 530 610 27,000  Level Toronto Center
10:45PM 44.1333 -78.3333 77° East 530 610 27,000  Level Toronto Center
10:46PM 44.1833 -78.1500 69° East 540 621 27,000  Level Toronto Center
10:47PM 44.2500 -77.9333 67° East 540 621 27,000  Level Toronto Center
10:48PM 44.3000 -77.7500 69° East 540 621 27,000 -60 Level Toronto Center
10:49PM 44.3500 -77.5500 71° East 540 621 26,900 -600 Descending Toronto Center
10:50PM 44.4333 -77.3833 55° Northeast 520 598 25,800 -1,200 Descending Toronto Center
10:50PM 44.4500 -77.3500 55° Northeast 520 598 25,400 -1,260 Descending Montreal Center
10:51PM 44.5333 -77.2167 49° Northeast 510 587 24,200 -1,200 Descending Montreal Center
10:52PM 44.6000 -77.0333 63° Northeast 500 575 23,000 -1,320 Descending Montreal Center
10:53PM 44.6667 -76.8667 61° Northeast 500 575 21,600 -1,440 Descending Montreal Center
10:54PM 44.7167 -76.7000 67° East 490 564 20,200 -1,680 Descending Montreal Center
10:55PM 44.7500 -76.5500 73° East 480 552 18,800 -1,980 Descending Toronto Center
10:56PM 44.8167 -76.3667 63° Northeast 470 541 16,900 -1,920 Descending Toronto Center
10:56PM 44.8333 -76.3667 360° North 460 529 16,400 -2,040 Descending Montreal Center
10:57PM 44.8833 -76.2000 67° East 440 506 14,300 -2,100 Descending Montreal Center
10:58PM 44.9333 -76.0667 62° Northeast 420 483 12,300 -1,980 Descending Montreal Center
10:59PM 44.9833 -75.9167 65° Northeast 390 449 10,400 -1,800 Descending Montreal Center
11:00PM 45.0167 -75.8000 68° East 320 368 8,800 -1,800 Descending Montreal Center
11:01PM 45.0500 -75.7000 65° Northeast 290 334 6,900 -2,040 Descending Montreal Center
11:02PM 45.1000 -75.6167 50° Northeast 240 276 4,800 -1,920 Descending Montreal Center
11:03PM 45.1333 -75.5333 60° Northeast 230 265 3,100 -1,020 Descending Montreal Center
11:04PM 45.1833 -75.5000 25° Northeast 190 219 2,800 -300 Descending Montreal Center